Terminal Aerodrome Forecast
Issued by NWS Albany, NY

Home | Current Version | Previous Version | Text Only | Print | Product List | Glossary On
Versions: 1 2 3 4 5 6 7 8 9 10 11 12 13 14 15 16 17 18 19 20 21 22 23 24 25 26
000
FTUS41 KALY 172300 RRA
TAFPOU
TAF
KPOU 172348Z 1800/1824 27010G16KT P6SM SCT045 OVC060
      TEMPO 1800/1804 -RA OVC045
     FM180400 28009KT P6SM OVC045
     FM181300 30012G18KT P6SM BKN045
     FM182200 30008KT P6SM BKN050=

USA.gov is the U.S. government's official web portal to all federal, state and local government web resources and services.